This is the latest recevied weather packets stored in our database for station/object F1ZTH-10. If no packets are shown the sender has not sent any weather packets the latest 1 day(s).
| Time | Temp. | Humidity | Pressure | Rain* | Wind** | Luminosity | Snow |
|---|---|---|---|---|---|---|---|
| 1778083083 | 20.56° C | 72% | 970 hPa | - | - | - | - |
| 1778082183 | 20.56° C | 73% | 970 hPa | - | - | - | - |
| 1778081283 | 20.56° C | 72% | 970 hPa | - | - | - | - |
| 1778080383 | 22.22° C | 71% | 970 hPa | - | - | - | - |
| 1778079483 | 21.11° C | 75% | 971 hPa | - | - | - | - |
| 1778078583 | 20° C | 79% | 971 hPa | - | - | - | - |
| 1778077683 | 18.89° C | 80% | 971 hPa | - | - | - | - |
| 1778075883 | 18.33° C | 79% | 971 hPa | - | - | - | - |
| 1778074983 | 17.78° C | 77% | 971 hPa | - | - | - | - |
| 1778074083 | 18.33° C | 75% | 971 hPa | - | - | - | - |
| 1778073183 | 18.33° C | 74% | 971 hPa | - | - | - | - |
| 1778072283 | 18.89° C | 75% | 972 hPa | - | - | - | - |
| 1778050682 | 10° C | 91% | 970 hPa | - | - | - | - |
| 1778048882 | 10° C | 91% | 969 hPa | - | - | - | - |
| 1778047982 | 10° C | 91% | 969 hPa | - | - | - | - |
| 1778047082 | 10° C | 90% | 969 hPa | - | - | - | - |
| 1778046182 | 10° C | 90% | 969 hPa | - | - | - | - |
| 1778045282 | 10° C | 90% | 969 hPa | - | - | - | - |
| 1778044382 | 10° C | 90% | 969 hPa | - | - | - | - |
| 1778043481 | 10° C | 90% | 969 hPa | - | - | - | - |
| 1778042581 | 10° C | 90% | 968 hPa | - | - | - | - |
| 1778041681 | 10° C | 90% | 968 hPa | - | - | - | - |
| 1778040781 | 10° C | 90% | 968 hPa | - | - | - | - |
| 1778039881 | 10.56° C | 89% | 968 hPa | - | - | - | - |
| 1778038981 | 10.56° C | 89% | 968 hPa | - | - | - | - |
* Rain since midnight (hover to see other rain measurements)
** Current wind speed in m/s (hover to see current wind gust speed)